sensor_id;sensor_type;location;lat;lon;timestamp;temperature;humidity
2873;DHT22;1444;49.166;7.312;2023-03-05T00:00:13;6.10;90.10
2873;DHT22;1444;49.166;7.312;2023-03-05T00:02:40;6.00;90.10
2873;DHT22;1444;49.166;7.312;2023-03-05T00:05:08;5.90;90.60
2873;DHT22;1444;49.166;7.312;2023-03-05T00:07:35;6.80;91.00
2873;DHT22;1444;49.166;7.312;2023-03-05T00:10:03;5.90;90.80
2873;DHT22;1444;49.166;7.312;2023-03-05T00:12:30;5.90;90.60
2873;DHT22;1444;49.166;7.312;2023-03-05T00:14:58;5.90;90.90
2873;DHT22;1444;49.166;7.312;2023-03-05T00:17:25;5.90;90.70
2873;DHT22;1444;49.166;7.312;2023-03-05T00:19:52;5.80;90.80
2873;DHT22;1444;49.166;7.312;2023-03-05T00:22:18;5.80;90.80
2873;DHT22;1444;49.166;7.312;2023-03-05T00:24:45;5.80;90.90
2873;DHT22;1444;49.166;7.312;2023-03-05T00:27:11;5.80;91.00
2873;DHT22;1444;49.166;7.312;2023-03-05T00:29:39;5.90;90.90
2873;DHT22;1444;49.166;7.312;2023-03-05T00:32:07;5.90;90.70
2873;DHT22;1444;49.166;7.312;2023-03-05T00:34:34;5.90;90.60
2873;DHT22;1444;49.166;7.312;2023-03-05T00:37:01;6.00;90.60
2873;DHT22;1444;49.166;7.312;2023-03-05T00:39:28;6.10;90.50
2873;DHT22;1444;49.166;7.312;2023-03-05T00:41:55;6.20;90.60
2873;DHT22;1444;49.166;7.312;2023-03-05T00:44:23;6.30;90.60
2873;DHT22;1444;49.166;7.312;2023-03-05T00:46:49;6.30;90.50
2873;DHT22;1444;49.166;7.312;2023-03-05T00:49:18;6.40;90.60
2873;DHT22;1444;49.166;7.312;2023-03-05T00:51:44;6.30;90.50
2873;DHT22;1444;49.166;7.312;2023-03-05T00:54:11;6.20;90.50
2873;DHT22;1444;49.166;7.312;2023-03-05T00:56:38;6.20;90.70
2873;DHT22;1444;49.166;7.312;2023-03-05T00:59:04;6.30;90.60
2873;DHT22;1444;49.166;7.312;2023-03-05T01:01:31;6.30;90.70
2873;DHT22;1444;49.166;7.312;2023-03-05T01:03:58;5.60;90.50
2873;DHT22;1444;49.166;7.312;2023-03-05T01:06:27;6.00;90.70
2873;DHT22;1444;49.166;7.312;2023-03-05T01:08:54;6.10;90.80
2873;DHT22;1444;49.166;7.312;2023-03-05T01:11:21;6.10;90.60
2873;DHT22;1444;49.166;7.312;2023-03-05T01:13:48;6.10;90.70
2873;DHT22;1444;49.166;7.312;2023-03-05T01:16:14;6.10;90.70
2873;DHT22;1444;49.166;7.312;2023-03-05T01:18:41;6.10;90.80
2873;DHT22;1444;49.166;7.312;2023-03-05T01:21:08;6.10;91.10
2873;DHT22;1444;49.166;7.312;2023-03-05T01:23:36;6.10;91.50
2873;DHT22;1444;49.166;7.312;2023-03-05T01:26:03;6.10;91.60
2873;DHT22;1444;49.166;7.312;2023-03-05T01:28:29;6.20;91.50
2873;DHT22;1444;49.166;7.312;2023-03-05T01:30:57;6.20;91.30
2873;DHT22;1444;49.166;7.312;2023-03-05T01:33:23;6.30;91.20
2873;DHT22;1444;49.166;7.312;2023-03-05T01:35:50;6.30;91.10
2873;DHT22;1444;49.166;7.312;2023-03-05T01:38:17;6.20;91.10
2873;DHT22;1444;49.166;7.312;2023-03-05T01:40:45;6.10;91.30
2873;DHT22;1444;49.166;7.312;2023-03-05T01:43:22;6.10;91.20
2873;DHT22;1444;49.166;7.312;2023-03-05T01:46:25;5.90;91.10
2873;DHT22;1444;49.166;7.312;2023-03-05T01:48:55;5.80;91.30
2873;DHT22;1444;49.166;7.312;2023-03-05T01:51:26;5.70;91.50
2873;DHT22;1444;49.166;7.312;2023-03-05T01:53:54;5.60;91.60
2873;DHT22;1444;49.166;7.312;2023-03-05T01:56:26;5.60;91.60
2873;DHT22;1444;49.166;7.312;2023-03-05T01:58:53;5.60;91.50
2873;DHT22;1444;49.166;7.312;2023-03-05T02:01:29;5.50;91.60
2873;DHT22;1444;49.166;7.312;2023-03-05T02:03:56;5.50;91.80
2873;DHT22;1444;49.166;7.312;2023-03-05T02:06:23;5.40;91.90
2873;DHT22;1444;49.166;7.312;2023-03-05T02:08:49;5.40;92.00
2873;DHT22;1444;49.166;7.312;2023-03-05T02:11:16;5.30;92.00
2873;DHT22;1444;49.166;7.312;2023-03-05T02:13:44;5.30;92.00
2873;DHT22;1444;49.166;7.312;2023-03-05T02:16:11;5.30;92.10
2873;DHT22;1444;49.166;7.312;2023-03-05T02:18:38;5.30;92.00
2873;DHT22;1444;49.166;7.312;2023-03-05T02:21:06;5.30;92.10
2873;DHT22;1444;49.166;7.312;2023-03-05T02:23:34;5.40;91.90
2873;DHT22;1444;49.166;7.312;2023-03-05T02:26:03;5.40;91.80
2873;DHT22;1444;49.166;7.312;2023-03-05T02:28:33;5.60;91.70
2873;DHT22;1444;49.166;7.312;2023-03-05T02:31:08;5.70;91.40
2873;DHT22;1444;49.166;7.312;2023-03-05T02:33:35;5.80;91.40
2873;DHT22;1444;49.166;7.312;2023-03-05T02:36:02;5.80;91.50
2873;DHT22;1444;49.166;7.312;2023-03-05T02:38:30;5.70;91.70
2873;DHT22;1444;49.166;7.312;2023-03-05T02:41:28;5.60;91.60
2873;DHT22;1444;49.166;7.312;2023-03-05T02:43:55;5.50;91.70
2873;DHT22;1444;49.166;7.312;2023-03-05T02:46:22;5.60;91.80
2873;DHT22;1444;49.166;7.312;2023-03-05T02:48:48;5.50;91.70
2873;DHT22;1444;49.166;7.312;2023-03-05T02:51:16;5.60;91.80
2873;DHT22;1444;49.166;7.312;2023-03-05T02:53:44;5.70;91.70
2873;DHT22;1444;49.166;7.312;2023-03-05T02:56:10;5.80;91.60
2873;DHT22;1444;49.166;7.312;2023-03-05T02:58:37;5.70;91.60
2873;DHT22;1444;49.166;7.312;2023-03-05T03:01:04;5.80;91.70
2873;DHT22;1444;49.166;7.312;2023-03-05T03:03:30;5.90;91.70
2873;DHT22;1444;49.166;7.312;2023-03-05T03:05:57;5.90;91.80
2873;DHT22;1444;49.166;7.312;2023-03-05T03:08:24;5.90;91.50
2873;DHT22;1444;49.166;7.312;2023-03-05T03:10:52;5.80;91.50
2873;DHT22;1444;49.166;7.312;2023-03-05T03:13:20;5.70;91.60
2873;DHT22;1444;49.166;7.312;2023-03-05T03:15:47;5.70;91.80
2873;DHT22;1444;49.166;7.312;2023-03-05T03:18:14;5.80;91.90
2873;DHT22;1444;49.166;7.312;2023-03-05T03:20:41;6.00;91.70
2873;DHT22;1444;49.166;7.312;2023-03-05T03:23:08;6.00;91.60
2873;DHT22;1444;49.166;7.312;2023-03-05T03:25:34;6.00;91.70
2873;DHT22;1444;49.166;7.312;2023-03-05T03:28:02;5.90;91.80
2873;DHT22;1444;49.166;7.312;2023-03-05T03:30:29;5.90;91.90
2873;DHT22;1444;49.166;7.312;2023-03-05T03:32:56;5.90;91.80
2873;DHT22;1444;49.166;7.312;2023-03-05T03:35:23;5.90;91.60
2873;DHT22;1444;49.166;7.312;2023-03-05T03:37:49;5.90;91.60
2873;DHT22;1444;49.166;7.312;2023-03-05T03:40:16;5.80;91.90
2873;DHT22;1444;49.166;7.312;2023-03-05T03:42:43;5.90;91.80
2873;DHT22;1444;49.166;7.312;2023-03-05T03:45:12;5.90;91.80
2873;DHT22;1444;49.166;7.312;2023-03-05T03:47:38;5.90;91.90
2873;DHT22;1444;49.166;7.312;2023-03-05T03:50:06;5.80;92.00
2873;DHT22;1444;49.166;7.312;2023-03-05T03:52:32;5.70;92.20
2873;DHT22;1444;49.166;7.312;2023-03-05T03:54:59;5.60;92.30
2873;DHT22;1444;49.166;7.312;2023-03-05T03:57:27;5.50;92.50
2873;DHT22;1444;49.166;7.312;2023-03-05T03:59:54;5.40;92.40
2873;DHT22;1444;49.166;7.312;2023-03-05T04:02:22;5.40;92.70
2873;DHT22;1444;49.166;7.312;2023-03-05T04:04:49;5.50;92.60
2873;DHT22;1444;49.166;7.312;2023-03-05T04:07:16;5.50;92.60
2873;DHT22;1444;49.166;7.312;2023-03-05T04:09:43;5.50;92.50
2873;DHT22;1444;49.166;7.312;2023-03-05T04:12:10;5.50;92.50
2873;DHT22;1444;49.166;7.312;2023-03-05T04:14:42;5.50;92.50
2873;DHT22;1444;49.166;7.312;2023-03-05T04:17:10;5.40;92.50
2873;DHT22;1444;49.166;7.312;2023-03-05T04:19:38;5.40;92.40
2873;DHT22;1444;49.166;7.312;2023-03-05T04:22:05;5.40;92.50
2873;DHT22;1444;49.166;7.312;2023-03-05T04:24:32;5.40;92.60
2873;DHT22;1444;49.166;7.312;2023-03-05T04:26:59;5.50;92.70
2873;DHT22;1444;49.166;7.312;2023-03-05T04:29:26;5.50;92.50
2873;DHT22;1444;49.166;7.312;2023-03-05T04:31:53;5.60;92.20
2873;DHT22;1444;49.166;7.312;2023-03-05T04:34:20;5.70;92.20
2873;DHT22;1444;49.166;7.312;2023-03-05T04:36:48;5.60;92.10
2873;DHT22;1444;49.166;7.312;2023-03-05T04:39:14;5.60;92.30
2873;DHT22;1444;49.166;7.312;2023-03-05T04:41:41;5.60;92.20
2873;DHT22;1444;49.166;7.312;2023-03-05T04:44:08;5.60;92.30
2873;DHT22;1444;49.166;7.312;2023-03-05T04:46:35;5.40;92.50
2873;DHT22;1444;49.166;7.312;2023-03-05T04:49:01;5.40;92.50
2873;DHT22;1444;49.166;7.312;2023-03-05T04:51:28;5.40;92.70
2873;DHT22;1444;49.166;7.312;2023-03-05T04:53:56;5.30;92.80
2873;DHT22;1444;49.166;7.312;2023-03-05T04:56:23;5.20;92.80
2873;DHT22;1444;49.166;7.312;2023-03-05T04:58:49;5.20;93.00
2873;DHT22;1444;49.166;7.312;2023-03-05T05:01:16;5.20;93.00
2873;DHT22;1444;49.166;7.312;2023-03-05T05:03:43;5.20;93.00
2873;DHT22;1444;49.166;7.312;2023-03-05T05:06:10;5.30;93.00
2873;DHT22;1444;49.166;7.312;2023-03-05T05:08:37;5.40;92.80
2873;DHT22;1444;49.166;7.312;2023-03-05T05:11:07;5.40;92.60
2873;DHT22;1444;49.166;7.312;2023-03-05T05:13:34;5.40;92.70
2873;DHT22;1444;49.166;7.312;2023-03-05T05:16:01;5.40;92.90
2873;DHT22;1444;49.166;7.312;2023-03-05T05:18:27;5.40;92.70
2873;DHT22;1444;49.166;7.312;2023-03-05T05:20:54;5.50;92.60
2873;DHT22;1444;49.166;7.312;2023-03-05T05:23:21;5.40;92.70
2873;DHT22;1444;49.166;7.312;2023-03-05T05:25:55;5.40;92.70
2873;DHT22;1444;49.166;7.312;2023-03-05T05:28:23;5.40;92.80
2873;DHT22;1444;49.166;7.312;2023-03-05T05:30:50;5.30;92.90
2873;DHT22;1444;49.166;7.312;2023-03-05T05:33:16;5.20;93.00
2873;DHT22;1444;49.166;7.312;2023-03-05T05:35:43;5.10;93.00
2873;DHT22;1444;49.166;7.312;2023-03-05T05:38:10;7.60;94.20
2873;DHT22;1444;49.166;7.312;2023-03-05T05:40:37;5.20;93.10
2873;DHT22;1444;49.166;7.312;2023-03-05T05:43:04;5.30;93.10
2873;DHT22;1444;49.166;7.312;2023-03-05T05:45:32;5.30;93.00
2873;DHT22;1444;49.166;7.312;2023-03-05T05:47:59;5.40;92.90
2873;DHT22;1444;49.166;7.312;2023-03-05T05:50:25;5.30;92.80
2873;DHT22;1444;49.166;7.312;2023-03-05T05:52:52;5.40;92.70
2873;DHT22;1444;49.166;7.312;2023-03-05T05:55:19;5.40;92.70
2873;DHT22;1444;49.166;7.312;2023-03-05T05:57:46;5.40;92.80
2873;DHT22;1444;49.166;7.312;2023-03-05T06:00:13;5.40;92.60
2873;DHT22;1444;49.166;7.312;2023-03-05T06:02:42;5.40;92.50
2873;DHT22;1444;49.166;7.312;2023-03-05T06:05:11;5.50;92.50
2873;DHT22;1444;49.166;7.312;2023-03-05T06:07:39;5.50;92.40
2873;DHT22;1444;49.166;7.312;2023-03-05T06:10:07;5.50;92.50
2873;DHT22;1444;49.166;7.312;2023-03-05T06:12:34;5.40;92.50
2873;DHT22;1444;49.166;7.312;2023-03-05T06:15:01;5.60;92.50
2873;DHT22;1444;49.166;7.312;2023-03-05T06:17:28;5.60;92.40
2873;DHT22;1444;49.166;7.312;2023-03-05T06:19:56;5.70;92.50
2873;DHT22;1444;49.166;7.312;2023-03-05T06:22:22;5.70;92.40
2873;DHT22;1444;49.166;7.312;2023-03-05T06:24:49;5.70;92.30
2873;DHT22;1444;49.166;7.312;2023-03-05T06:27:16;5.70;92.40
2873;DHT22;1444;49.166;7.312;2023-03-05T06:29:42;5.70;92.30
2873;DHT22;1444;49.166;7.312;2023-03-05T06:32:09;5.70;92.30
2873;DHT22;1444;49.166;7.312;2023-03-05T06:34:36;5.70;92.30
2873;DHT22;1444;49.166;7.312;2023-03-05T06:37:04;5.80;92.30
2873;DHT22;1444;49.166;7.312;2023-03-05T06:39:30;5.80;92.30
2873;DHT22;1444;49.166;7.312;2023-03-05T06:41:59;5.80;92.20
2873;DHT22;1444;49.166;7.312;2023-03-05T06:44:26;5.80;92.20
2873;DHT22;1444;49.166;7.312;2023-03-05T06:46:53;5.90;92.20
2873;DHT22;1444;49.166;7.312;2023-03-05T06:49:20;5.90;92.30
2873;DHT22;1444;49.166;7.312;2023-03-05T06:51:46;5.80;92.30
2873;DHT22;1444;49.166;7.312;2023-03-05T06:54:15;5.90;92.50
2873;DHT22;1444;49.166;7.312;2023-03-05T06:56:44;5.90;92.60
2873;DHT22;1444;49.166;7.312;2023-03-05T06:59:14;5.80;92.80
2873;DHT22;1444;49.166;7.312;2023-03-05T07:01:41;5.80;92.80
2873;DHT22;1444;49.166;7.312;2023-03-05T07:04:08;5.90;92.80
2873;DHT22;1444;49.166;7.312;2023-03-05T07:06:36;6.00;92.90
2873;DHT22;1444;49.166;7.312;2023-03-05T07:09:05;6.00;92.80
2873;DHT22;1444;49.166;7.312;2023-03-05T07:11:33;6.00;92.80
2873;DHT22;1444;49.166;7.312;2023-03-05T07:14:00;6.10;92.90
2873;DHT22;1444;49.166;7.312;2023-03-05T07:16:29;6.20;93.00
2873;DHT22;1444;49.166;7.312;2023-03-05T07:18:57;6.30;93.00
2873;DHT22;1444;49.166;7.312;2023-03-05T07:21:26;6.30;93.00
2873;DHT22;1444;49.166;7.312;2023-03-05T07:23:53;6.40;93.20
2873;DHT22;1444;49.166;7.312;2023-03-05T07:26:21;6.50;93.10
2873;DHT22;1444;49.166;7.312;2023-03-05T07:28:49;6.60;92.90
2873;DHT22;1444;49.166;7.312;2023-03-05T07:31:17;6.60;92.40
2873;DHT22;1444;49.166;7.312;2023-03-05T07:33:45;6.70;92.40
2873;DHT22;1444;49.166;7.312;2023-03-05T07:36:12;6.70;92.30
2873;DHT22;1444;49.166;7.312;2023-03-05T07:38:39;6.80;92.30
2873;DHT22;1444;49.166;7.312;2023-03-05T07:41:08;6.80;92.00
2873;DHT22;1444;49.166;7.312;2023-03-05T07:43:35;6.80;91.60
2873;DHT22;1444;49.166;7.312;2023-03-05T07:46:04;6.80;91.70
2873;DHT22;1444;49.166;7.312;2023-03-05T07:48:32;6.80;91.70
2873;DHT22;1444;49.166;7.312;2023-03-05T07:51:02;6.90;91.70
2873;DHT22;1444;49.166;7.312;2023-03-05T07:53:28;6.90;91.80
2873;DHT22;1444;49.166;7.312;2023-03-05T07:55:55;6.90;91.40
2873;DHT22;1444;49.166;7.312;2023-03-05T07:58:22;6.90;91.40
2873;DHT22;1444;49.166;7.312;2023-03-05T08:00:49;7.00;91.40
2873;DHT22;1444;49.166;7.312;2023-03-05T08:03:17;7.00;91.40
2873;DHT22;1444;49.166;7.312;2023-03-05T08:05:44;7.10;91.00
2873;DHT22;1444;49.166;7.312;2023-03-05T08:08:11;7.20;91.00
2873;DHT22;1444;49.166;7.312;2023-03-05T08:10:38;7.20;90.90
2873;DHT22;1444;49.166;7.312;2023-03-05T08:13:05;7.20;90.70
2873;DHT22;1444;49.166;7.312;2023-03-05T08:15:32;7.30;90.80
2873;DHT22;1444;49.166;7.312;2023-03-05T08:17:59;7.30;90.80
2873;DHT22;1444;49.166;7.312;2023-03-05T08:20:27;7.30;90.60
2873;DHT22;1444;49.166;7.312;2023-03-05T08:22:54;7.30;90.60
2873;DHT22;1444;49.166;7.312;2023-03-05T08:25:21;7.20;90.40
2873;DHT22;1444;49.166;7.312;2023-03-05T08:27:47;7.30;90.60
2873;DHT22;1444;49.166;7.312;2023-03-05T08:30:16;7.30;90.70
2873;DHT22;1444;49.166;7.312;2023-03-05T08:32:43;7.30;90.50
2873;DHT22;1444;49.166;7.312;2023-03-05T08:35:09;7.30;90.10
2873;DHT22;1444;49.166;7.312;2023-03-05T08:37:37;7.40;90.40
2873;DHT22;1444;49.166;7.312;2023-03-05T08:40:05;7.50;90.50
2873;DHT22;1444;49.166;7.312;2023-03-05T08:42:32;7.50;90.30
2873;DHT22;1444;49.166;7.312;2023-03-05T08:44:59;7.60;90.60
2873;DHT22;1444;49.166;7.312;2023-03-05T08:47:26;7.60;90.30
2873;DHT22;1444;49.166;7.312;2023-03-05T08:49:53;7.70;90.20
2873;DHT22;1444;49.166;7.312;2023-03-05T08:52:21;7.60;89.30
2873;DHT22;1444;49.166;7.312;2023-03-05T08:54:49;7.60;89.90
2873;DHT22;1444;49.166;7.312;2023-03-05T08:57:16;7.60;89.80
2873;DHT22;1444;49.166;7.312;2023-03-05T08:59:43;7.60;89.50
2873;DHT22;1444;49.166;7.312;2023-03-05T09:02:11;7.60;90.10
2873;DHT22;1444;49.166;7.312;2023-03-05T09:04:38;7.70;90.20
2873;DHT22;1444;49.166;7.312;2023-03-05T09:07:05;7.80;90.00
2873;DHT22;1444;49.166;7.312;2023-03-05T09:09:32;7.90;89.10
2873;DHT22;1444;49.166;7.312;2023-03-05T09:12:04;7.90;89.20
2873;DHT22;1444;49.166;7.312;2023-03-05T09:14:31;7.90;87.80
2873;DHT22;1444;49.166;7.312;2023-03-05T09:16:57;8.00;88.00
2873;DHT22;1444;49.166;7.312;2023-03-05T09:19:24;8.00;87.60
2873;DHT22;1444;49.166;7.312;2023-03-05T09:21:51;7.90;87.00
2873;DHT22;1444;49.166;7.312;2023-03-05T09:24:18;7.90;87.80
2873;DHT22;1444;49.166;7.312;2023-03-05T09:26:45;7.90;87.10
2873;DHT22;1444;49.166;7.312;2023-03-05T09:29:13;8.00;86.70
2873;DHT22;1444;49.166;7.312;2023-03-05T09:31:39;8.00;86.20
2873;DHT22;1444;49.166;7.312;2023-03-05T09:34:07;8.00;85.60
2873;DHT22;1444;49.166;7.312;2023-03-05T09:36:34;8.00;85.90
2873;DHT22;1444;49.166;7.312;2023-03-05T09:39:01;8.00;86.50
2873;DHT22;1444;49.166;7.312;2023-03-05T09:41:35;8.00;86.50
2873;DHT22;1444;49.166;7.312;2023-03-05T09:44:24;8.00;87.10
2873;DHT22;1444;49.166;7.312;2023-03-05T09:46:54;8.00;86.80
2873;DHT22;1444;49.166;7.312;2023-03-05T09:49:31;8.10;86.90
2873;DHT22;1444;49.166;7.312;2023-03-05T09:52:03;8.10;86.60
2873;DHT22;1444;49.166;7.312;2023-03-05T09:54:37;8.20;86.20
2873;DHT22;1444;49.166;7.312;2023-03-05T09:57:08;8.20;85.60
2873;DHT22;1444;49.166;7.312;2023-03-05T09:59:45;8.10;85.20
2873;DHT22;1444;49.166;7.312;2023-03-05T10:02:17;8.20;85.80
2873;DHT22;1444;49.166;7.312;2023-03-05T10:04:48;8.20;86.70
2873;DHT22;1444;49.166;7.312;2023-03-05T10:07:20;8.30;86.20
2873;DHT22;1444;49.166;7.312;2023-03-05T10:12:25;8.30;85.50
2873;DHT22;1444;49.166;7.312;2023-03-05T10:14:54;8.30;85.10
2873;DHT22;1444;49.166;7.312;2023-03-05T10:17:49;8.20;84.20
2873;DHT22;1444;49.166;7.312;2023-03-05T10:20:47;8.10;83.90
2873;DHT22;1444;49.166;7.312;2023-03-05T10:23:26;8.10;84.80
2873;DHT22;1444;49.166;7.312;2023-03-05T10:26:04;8.10;85.10
2873;DHT22;1444;49.166;7.312;2023-03-05T10:28:42;8.20;85.50
2873;DHT22;1444;49.166;7.312;2023-03-05T10:31:22;8.30;84.10
2873;DHT22;1444;49.166;7.312;2023-03-05T10:34:14;8.30;83.30
2873;DHT22;1444;49.166;7.312;2023-03-05T10:36:58;8.30;85.00
2873;DHT22;1444;49.166;7.312;2023-03-05T10:39:41;8.20;84.50
2873;DHT22;1444;49.166;7.312;2023-03-05T10:42:15;8.30;84.30
2873;DHT22;1444;49.166;7.312;2023-03-05T10:44:47;8.30;84.10
2873;DHT22;1444;49.166;7.312;2023-03-05T10:47:24;8.30;84.50
2873;DHT22;1444;49.166;7.312;2023-03-05T10:49:53;8.40;85.10
2873;DHT22;1444;49.166;7.312;2023-03-05T10:52:26;8.50;85.50
2873;DHT22;1444;49.166;7.312;2023-03-05T10:54:54;8.60;85.70
2873;DHT22;1444;49.166;7.312;2023-03-05T10:57:22;8.70;85.00
2873;DHT22;1444;49.166;7.312;2023-03-05T10:59:51;8.60;83.00
2873;DHT22;1444;49.166;7.312;2023-03-05T11:02:21;8.70;84.70
2873;DHT22;1444;49.166;7.312;2023-03-05T11:04:49;8.50;81.90
2873;DHT22;1444;49.166;7.312;2023-03-05T11:07:31;8.30;82.80
2873;DHT22;1444;49.166;7.312;2023-03-05T11:10:14;8.20;83.40
2873;DHT22;1444;49.166;7.312;2023-03-05T11:12:41;8.20;84.10
2873;DHT22;1444;49.166;7.312;2023-03-05T11:15:26;8.30;84.00
2873;DHT22;1444;49.166;7.312;2023-03-05T11:18:16;8.30;84.20
2873;DHT22;1444;49.166;7.312;2023-03-05T11:20:43;8.30;84.10
2873;DHT22;1444;49.166;7.312;2023-03-05T11:23:12;8.40;84.00
2873;DHT22;1444;49.166;7.312;2023-03-05T11:25:57;8.50;83.20
2873;DHT22;1444;49.166;7.312;2023-03-05T11:28:28;8.50;83.40
2873;DHT22;1444;49.166;7.312;2023-03-05T11:30:57;8.50;83.10
2873;DHT22;1444;49.166;7.312;2023-03-05T11:33:27;8.50;83.30
2873;DHT22;1444;49.166;7.312;2023-03-05T11:36:11;8.50;82.90
2873;DHT22;1444;49.166;7.312;2023-03-05T11:38:49;8.30;83.50
2873;DHT22;1444;49.166;7.312;2023-03-05T11:41:18;8.20;84.20
2873;DHT22;1444;49.166;7.312;2023-03-05T11:43:47;8.20;83.80
2873;DHT22;1444;49.166;7.312;2023-03-05T11:46:16;8.30;83.90
2873;DHT22;1444;49.166;7.312;2023-03-05T11:48:45;8.30;84.10
2873;DHT22;1444;49.166;7.312;2023-03-05T11:51:17;8.30;83.70
2873;DHT22;1444;49.166;7.312;2023-03-05T11:53:49;8.30;83.10
2873;DHT22;1444;49.166;7.312;2023-03-05T11:56:19;8.30;82.60
2873;DHT22;1444;49.166;7.312;2023-03-05T11:58:50;8.30;83.30
2873;DHT22;1444;49.166;7.312;2023-03-05T12:01:20;8.10;83.00
2873;DHT22;1444;49.166;7.312;2023-03-05T12:03:49;8.10;83.20
2873;DHT22;1444;49.166;7.312;2023-03-05T12:06:22;8.10;83.40
2873;DHT22;1444;49.166;7.312;2023-03-05T12:08:52;8.00;83.20
2873;DHT22;1444;49.166;7.312;2023-03-05T12:11:22;8.00;83.50
2873;DHT22;1444;49.166;7.312;2023-03-05T12:13:54;8.00;83.30
2873;DHT22;1444;49.166;7.312;2023-03-05T12:16:27;8.10;83.00
2873;DHT22;1444;49.166;7.312;2023-03-05T12:22:01;8.20;82.20
2873;DHT22;1444;49.166;7.312;2023-03-05T12:24:38;8.30;81.50
2873;DHT22;1444;49.166;7.312;2023-03-05T12:27:07;8.30;81.90
2873;DHT22;1444;49.166;7.312;2023-03-05T12:29:39;8.30;80.50
2873;DHT22;1444;49.166;7.312;2023-03-05T12:35:45;8.30;80.70
2873;DHT22;1444;49.166;7.312;2023-03-05T12:38:27;8.30;81.10
2873;DHT22;1444;49.166;7.312;2023-03-05T12:44:16;8.10;80.60
2873;DHT22;1444;49.166;7.312;2023-03-05T12:46:45;8.10;82.20
2873;DHT22;1444;49.166;7.312;2023-03-05T12:49:32;8.10;81.00
2873;DHT22;1444;49.166;7.312;2023-03-05T12:52:02;8.10;80.70
2873;DHT22;1444;49.166;7.312;2023-03-05T12:54:34;8.00;80.40
2873;DHT22;1444;49.166;7.312;2023-03-05T12:57:12;8.10;81.00
2873;DHT22;1444;49.166;7.312;2023-03-05T12:59:44;8.00;80.90
2873;DHT22;1444;49.166;7.312;2023-03-05T13:02:27;8.00;81.10
2873;DHT22;1444;49.166;7.312;2023-03-05T13:04:58;8.00;81.40
2873;DHT22;1444;49.166;7.312;2023-03-05T13:07:27;8.00;82.10
2873;DHT22;1444;49.166;7.312;2023-03-05T13:09:55;8.00;83.00
2873;DHT22;1444;49.166;7.312;2023-03-05T13:12:22;8.00;83.10
2873;DHT22;1444;49.166;7.312;2023-03-05T13:14:57;7.90;83.30
2873;DHT22;1444;49.166;7.312;2023-03-05T13:17:28;7.90;83.00
2873;DHT22;1444;49.166;7.312;2023-03-05T13:19:55;7.80;83.70
2873;DHT22;1444;49.166;7.312;2023-03-05T13:23:03;7.80;84.30
2873;DHT22;1444;49.166;7.312;2023-03-05T13:25:30;7.70;84.50
2873;DHT22;1444;49.166;7.312;2023-03-05T13:28:02;10.00;85.30
2873;DHT22;1444;49.166;7.312;2023-03-05T13:30:31;7.70;84.50
2873;DHT22;1444;49.166;7.312;2023-03-05T13:33:00;7.70;84.30
2873;DHT22;1444;49.166;7.312;2023-03-05T13:35:28;7.70;85.40
2873;DHT22;1444;49.166;7.312;2023-03-05T13:37:55;7.70;85.00
2873;DHT22;1444;49.166;7.312;2023-03-05T13:40:24;7.70;84.90
2873;DHT22;1444;49.166;7.312;2023-03-05T13:42:52;7.70;84.60
2873;DHT22;1444;49.166;7.312;2023-03-05T13:45:23;7.70;85.10
2873;DHT22;1444;49.166;7.312;2023-03-05T13:47:55;7.70;84.50
2873;DHT22;1444;49.166;7.312;2023-03-05T13:52:51;7.70;85.30
2873;DHT22;1444;49.166;7.312;2023-03-05T13:55:18;7.80;85.40
2873;DHT22;1444;49.166;7.312;2023-03-05T13:57:47;7.80;85.00
2873;DHT22;1444;49.166;7.312;2023-03-05T14:00:27;7.80;85.20
2873;DHT22;1444;49.166;7.312;2023-03-05T14:02:56;7.80;84.80
2873;DHT22;1444;49.166;7.312;2023-03-05T14:05:24;7.90;85.10
2873;DHT22;1444;49.166;7.312;2023-03-05T14:07:52;7.80;84.80
2873;DHT22;1444;49.166;7.312;2023-03-05T14:10:30;7.90;85.40
2873;DHT22;1444;49.166;7.312;2023-03-05T14:13:02;7.90;85.50
2873;DHT22;1444;49.166;7.312;2023-03-05T14:15:33;7.90;85.80
2873;DHT22;1444;49.166;7.312;2023-03-05T14:18:12;8.30;86.30
2873;DHT22;1444;49.166;7.312;2023-03-05T14:20:57;7.90;85.50
2873;DHT22;1444;49.166;7.312;2023-03-05T14:23:25;7.90;85.70
2873;DHT22;1444;49.166;7.312;2023-03-05T14:25:52;7.80;84.90
2873;DHT22;1444;49.166;7.312;2023-03-05T14:28:37;7.70;85.50
2873;DHT22;1444;49.166;7.312;2023-03-05T14:31:12;7.60;84.80
2873;DHT22;1444;49.166;7.312;2023-03-05T14:33:40;7.60;85.10
2873;DHT22;1444;49.166;7.312;2023-03-05T14:36:08;7.60;85.20
2873;DHT22;1444;49.166;7.312;2023-03-05T14:38:39;7.60;85.20
2873;DHT22;1444;49.166;7.312;2023-03-05T14:41:19;7.70;85.90
2873;DHT22;1444;49.166;7.312;2023-03-05T14:43:47;7.60;85.40
2873;DHT22;1444;49.166;7.312;2023-03-05T14:46:14;7.60;85.70
2873;DHT22;1444;49.166;7.312;2023-03-05T14:48:42;7.60;85.20
2873;DHT22;1444;49.166;7.312;2023-03-05T14:51:09;7.60;85.60
2873;DHT22;1444;49.166;7.312;2023-03-05T14:53:41;6.50;84.30
2873;DHT22;1444;49.166;7.312;2023-03-05T14:56:16;7.50;85.40
2873;DHT22;1444;49.166;7.312;2023-03-05T14:58:43;7.40;86.00
2873;DHT22;1444;49.166;7.312;2023-03-05T15:01:12;8.00;86.80
2873;DHT22;1444;49.166;7.312;2023-03-05T15:03:38;7.40;87.50
2873;DHT22;1444;49.166;7.312;2023-03-05T15:06:07;7.30;87.10
2873;DHT22;1444;49.166;7.312;2023-03-05T15:08:39;7.30;86.80
2873;DHT22;1444;49.166;7.312;2023-03-05T15:11:06;7.30;86.60
2873;DHT22;1444;49.166;7.312;2023-03-05T15:13:32;7.30;87.20
2873;DHT22;1444;49.166;7.312;2023-03-05T15:16:01;7.30;87.50
2873;DHT22;1444;49.166;7.312;2023-03-05T15:18:29;7.40;87.40
2873;DHT22;1444;49.166;7.312;2023-03-05T15:20:56;7.30;87.40
2873;DHT22;1444;49.166;7.312;2023-03-05T15:23:24;7.30;86.70
2873;DHT22;1444;49.166;7.312;2023-03-05T15:25:52;7.30;86.90
2873;DHT22;1444;49.166;7.312;2023-03-05T15:28:18;7.30;87.50
2873;DHT22;1444;49.166;7.312;2023-03-05T15:30:46;7.30;87.10
2873;DHT22;1444;49.166;7.312;2023-03-05T15:33:15;7.20;87.00
2873;DHT22;1444;49.166;7.312;2023-03-05T15:35:43;7.20;87.30
2873;DHT22;1444;49.166;7.312;2023-03-05T15:38:10;7.20;87.80
2873;DHT22;1444;49.166;7.312;2023-03-05T15:40:37;7.20;87.50
2873;DHT22;1444;49.166;7.312;2023-03-05T15:43:04;7.30;87.40
2873;DHT22;1444;49.166;7.312;2023-03-05T15:45:30;7.30;87.10
2873;DHT22;1444;49.166;7.312;2023-03-05T15:47:58;7.40;87.70
2873;DHT22;1444;49.166;7.312;2023-03-05T15:50:25;7.30;88.00
2873;DHT22;1444;49.166;7.312;2023-03-05T15:52:53;7.30;87.20
2873;DHT22;1444;49.166;7.312;2023-03-05T15:55:20;7.20;87.50
2873;DHT22;1444;49.166;7.312;2023-03-05T15:57:48;7.20;87.60
2873;DHT22;1444;49.166;7.312;2023-03-05T16:00:17;7.20;87.50
2873;DHT22;1444;49.166;7.312;2023-03-05T16:02:44;7.20;87.80
2873;DHT22;1444;49.166;7.312;2023-03-05T16:05:11;7.20;87.60
2873;DHT22;1444;49.166;7.312;2023-03-05T16:07:40;7.20;87.50
2873;DHT22;1444;49.166;7.312;2023-03-05T16:10:13;7.20;88.10
2873;DHT22;1444;49.166;7.312;2023-03-05T16:12:42;7.10;87.20
2873;DHT22;1444;49.166;7.312;2023-03-05T16:15:11;7.20;87.20
2873;DHT22;1444;49.166;7.312;2023-03-05T16:17:39;7.20;87.30
2873;DHT22;1444;49.166;7.312;2023-03-05T16:20:08;7.20;87.40
2873;DHT22;1444;49.166;7.312;2023-03-05T16:22:35;7.20;87.70
2873;DHT22;1444;49.166;7.312;2023-03-05T16:25:02;7.30;87.70
2873;DHT22;1444;49.166;7.312;2023-03-05T16:27:30;7.30;87.90
2873;DHT22;1444;49.166;7.312;2023-03-05T16:29:56;7.30;87.50
2873;DHT22;1444;49.166;7.312;2023-03-05T16:32:24;7.30;87.20
2873;DHT22;1444;49.166;7.312;2023-03-05T16:34:50;7.30;87.50
2873;DHT22;1444;49.166;7.312;2023-03-05T16:37:19;7.30;87.70
2873;DHT22;1444;49.166;7.312;2023-03-05T16:39:46;7.20;87.80
2873;DHT22;1444;49.166;7.312;2023-03-05T16:42:13;7.20;88.00
2873;DHT22;1444;49.166;7.312;2023-03-05T16:47:10;7.10;88.40